Gulf Pearl — C6UK9 — position and weather

sailwx.info

Track history (hours):
 
Tides and Currents Weather Stations Pressure Air Temp Water Temp Dewpoint Dewpoint Depression Visibility Wind Speed Wind Dir Waves Ship Positions

Gulf Pearl

Last reported at 2018-Jun-21 19:58 UTC. Time now 2018-Jun-21 19:58 UTC.
Position N 37°19' W 123°22'.

Length 228 m; draft 11.3 m.

Type: Tanker. MMSI: 311943000.

Date/timePositionNaut miles runAvg speedWind from/ knotsBaromVisibWave heightAir tempDewpointWater temp
2018-Jun-21 19:58N 37°19' W 123°22'511.1
2018-Jun-21 19:30N 37°15' W 123°27'611.1
2018-Jun-21 19:00N 37°11' W 123°32'510.9
2018-Jun-21 18:30N 37°07' W 123°36'610.8
2018-Jun-21 17:58N 37°02' W 123°41'611.1
2018-Jun-21 17:28N 36°58' W 123°46'510.9
2018-Jun-21 17:00N 36°55' W 123°50'611.1
2018-Jun-21 16:30N 36°51' W 123°55'510.7
2018-Jun-21 16:00N 36°47' W 123°60'510.9
2018-Jun-21 15:30N 36°43' W 124°04'510.9
2018-Jun-21 15:00N 36°39' W 124°09'611.4
2018-Jun-21 14:30N 36°35' W 124°14'711.6
2018-Jun-21 13:54N 36°29' W 124°19'512.1
2018-Jun-21 13:30N 36°26' W 124°23'2212.1
2018-Jun-21 11:39N 36°09' W 124°42'211.6
2018-Jun-21 11:30N 36°08' W 124°44'611.6
2018-Jun-21 11:00N 36°04' W 124°49'611.4
2018-Jun-21 10:30N 35°60' W 124°53'611.4
2018-Jun-21 09:59N 35°55' W 124°58'511.2
2018-Jun-21 09:30N 35°51' W 125°03'611.2
2018-Jun-21 09:00N 35°47' W 125°07'611.5
2018-Jun-21 08:30N 35°43' W 125°12'611.5
2018-Jun-21 08:00N 35°39' W 125°17'611.5
2018-Jun-21 07:30N 35°34' W 125°22'611.5
2018-Jun-21 07:00N 35°30' W 125°27'611.4
2018-Jun-21 06:30N 35°26' W 125°31'611.4
2018-Jun-21 05:57N 35°21' W 125°36'69 9.1
2018-Jun-20 22:23N 34°14' W 125°19'410.9
2018-Jun-20 22:00N 34°11' W 125°17'611.1
2018-Jun-20 21:28N 34°05' W 125°15'610.9
2018-Jun-20 20:56N 33°59' W 125°12'511.0
2018-Jun-20 20:30N 33°55' W 125°09'611.1
2018-Jun-20 20:00N 33°50' W 125°06'510.7
2018-Jun-20 19:30N 33°46' W 125°03'510.8
2018-Jun-20 19:00N 33°41' W 125°01'611.0
2018-Jun-20 18:29N 33°35' W 124°58'1610.9
2018-Jun-20 17:00N 33°21' W 124°50'710.8
2018-Jun-20 16:22N 33°15' W 124°46'511.7
2018-Jun-20 15:59N 33°11' W 124°44'612.0
2018-Jun-20 15:30N 33°05' W 124°41'611.7
2018-Jun-20 15:00N 33°00' W 124°38'610.9
2018-Jun-20 14:29N 32°55' W 124°35'510.7
2018-Jun-20 14:00N 32°50' W 124°33'510.6
2018-Jun-20 13:29N 32°45' W 124°30'510.4
2018-Jun-20 13:00N 32°41' W 124°27'1510.8
2018-Jun-20 11:38N 32°30' W 124°16'310.8
2018-Jun-20 11:22N 32°28' W 124°13'1710.6
2018-Jun-20 09:46N 32°15' W 124°00'410.9
2018-Jun-20 09:22N 32°12' W 123°57'411.1
2018-Jun-20 09:00N 32°09' W 123°53'510.8
2018-Jun-20 08:30N 32°05' W 123°49'610.9
2018-Jun-20 08:00N 32°00' W 123°45'610.8
2018-Jun-20 07:28N 31°56' W 123°40'610.7
2018-Jun-20 06:53N 31°51' W 123°36'410.6
2018-Jun-20 06:30N 31°48' W 123°32'510.8
2018-Jun-20 06:01N 31°44' W 123°28'610.8
2018-Jun-20 05:27N 31°40' W 123°24'510.8
2018-Jun-20 04:57N 31°36' W 123°19'510.6
2018-Jun-20 04:29N 31°32' W 123°16'611.7
2018-Jun-20 04:00N 31°28' W 123°11'611.2
2018-Jun-20 03:27N 31°23' W 123°06'610.9
2018-Jun-20 02:55N 31°19' W 123°02'  
Track history (hours):
 
Tides and Currents Weather Stations Pressure Air Temp Water Temp Dewpoint Dewpoint Depression Visibility Wind Speed Wind Dir Waves Ship Positions

Gulf Pearl

Last reported at 2018-Jun-21 19:58 UTC. Time now 2018-Jun-21 19:58 UTC.
Position N 37°19' W 123°22'.

Length 228 m; draft 11.3 m.

Type: Tanker. MMSI: 311943000.

Date/timePositionNaut miles runAvg speedWind from/ knotsBaromVisibWave heightAir tempDewpointWater temp
2018-Jun-21 19:58N 37°19' W 123°22'511.1
2018-Jun-21 19:30N 37°15' W 123°27'611.1
2018-Jun-21 19:00N 37°11' W 123°32'510.9
2018-Jun-21 18:30N 37°07' W 123°36'610.8
2018-Jun-21 17:58N 37°02' W 123°41'611.1
2018-Jun-21 17:28N 36°58' W 123°46'510.9
2018-Jun-21 17:00N 36°55' W 123°50'611.1
2018-Jun-21 16:30N 36°51' W 123°55'510.7
2018-Jun-21 16:00N 36°47' W 123°60'510.9
2018-Jun-21 15:30N 36°43' W 124°04'510.9
2018-Jun-21 15:00N 36°39' W 124°09'611.4
2018-Jun-21 14:30N 36°35' W 124°14'711.6
2018-Jun-21 13:54N 36°29' W 124°19'512.1
2018-Jun-21 13:30N 36°26' W 124°23'2212.1
2018-Jun-21 11:39N 36°09' W 124°42'211.6
2018-Jun-21 11:30N 36°08' W 124°44'611.6
2018-Jun-21 11:00N 36°04' W 124°49'611.4
2018-Jun-21 10:30N 35°60' W 124°53'611.4
2018-Jun-21 09:59N 35°55' W 124°58'511.2
2018-Jun-21 09:30N 35°51' W 125°03'611.2
2018-Jun-21 09:00N 35°47' W 125°07'611.5
2018-Jun-21 08:30N 35°43' W 125°12'611.5
2018-Jun-21 08:00N 35°39' W 125°17'611.5
2018-Jun-21 07:30N 35°34' W 125°22'611.5
2018-Jun-21 07:00N 35°30' W 125°27'611.4
2018-Jun-21 06:30N 35°26' W 125°31'611.4
2018-Jun-21 05:57N 35°21' W 125°36'69 9.1
2018-Jun-20 22:23N 34°14' W 125°19'410.9
2018-Jun-20 22:00N 34°11' W 125°17'611.1
2018-Jun-20 21:28N 34°05' W 125°15'610.9
2018-Jun-20 20:56N 33°59' W 125°12'511.0
2018-Jun-20 20:30N 33°55' W 125°09'611.1
2018-Jun-20 20:00N 33°50' W 125°06'510.7
2018-Jun-20 19:30N 33°46' W 125°03'510.8
2018-Jun-20 19:00N 33°41' W 125°01'611.0
2018-Jun-20 18:29N 33°35' W 124°58'1610.9
2018-Jun-20 17:00N 33°21' W 124°50'710.8
2018-Jun-20 16:22N 33°15' W 124°46'511.7
2018-Jun-20 15:59N 33°11' W 124°44'612.0
2018-Jun-20 15:30N 33°05' W 124°41'611.7
2018-Jun-20 15:00N 33°00' W 124°38'610.9
2018-Jun-20 14:29N 32°55' W 124°35'510.7
2018-Jun-20 14:00N 32°50' W 124°33'510.6
2018-Jun-20 13:29N 32°45' W 124°30'510.4
2018-Jun-20 13:00N 32°41' W 124°27'1510.8
2018-Jun-20 11:38N 32°30' W 124°16'310.8
2018-Jun-20 11:22N 32°28' W 124°13'1710.6
2018-Jun-20 09:46N 32°15' W 124°00'410.9
2018-Jun-20 09:22N 32°12' W 123°57'411.1
2018-Jun-20 09:00N 32°09' W 123°53'510.8
2018-Jun-20 08:30N 32°05' W 123°49'610.9
2018-Jun-20 08:00N 32°00' W 123°45'610.8
2018-Jun-20 07:28N 31°56' W 123°40'610.7
2018-Jun-20 06:53N 31°51' W 123°36'410.6
2018-Jun-20 06:30N 31°48' W 123°32'510.8
2018-Jun-20 06:01N 31°44' W 123°28'610.8
2018-Jun-20 05:27N 31°40' W 123°24'510.8
2018-Jun-20 04:57N 31°36' W 123°19'510.6
2018-Jun-20 04:29N 31°32' W 123°16'611.7
2018-Jun-20 04:00N 31°28' W 123°11'611.2
2018-Jun-20 03:27N 31°23' W 123°06'610.9
2018-Jun-20 02:55N 31°19' W 123°02'  

Dump ship's entire track history